createdAt,value
2018-04-02T00:00:23.683Z,74.37
2018-04-02T00:02:51.028Z,77.27
2018-04-02T00:05:18.331Z,82.37
2018-04-02T00:07:45.601Z,79.87
2018-04-02T00:10:12.871Z,74.37
2018-04-02T00:12:40.161Z,78.70
2018-04-02T00:15:07.429Z,93.60
2018-04-02T00:17:34.700Z,79.10
2018-04-02T00:20:01.989Z,77.77
2018-04-02T00:22:29.361Z,80.77
2018-04-02T00:24:56.624Z,76.80
2018-04-02T00:27:23.912Z,89.83
2018-04-02T00:29:51.196Z,83.70
2018-04-02T00:32:18.463Z,80.70
2018-04-02T00:34:45.730Z,94.33
2018-04-02T00:37:13.017Z,82.03
2018-04-02T00:39:40.289Z,77.40
2018-04-02T00:42:07.590Z,87.43
2018-04-02T00:44:34.872Z,94.63
2018-04-02T00:47:02.192Z,70.90
2018-04-02T00:49:29.481Z,75.20
2018-04-02T00:51:56.740Z,84.47
2018-04-02T00:54:24.040Z,76.23
2018-04-02T00:56:51.302Z,93.70
2018-04-02T00:59:18.572Z,81.03
2018-04-02T01:01:46.262Z,71.73
2018-04-02T01:04:13.620Z,81.03
2018-04-02T01:06:40.884Z,84.70
2018-04-02T01:09:08.171Z,90.07
2018-04-02T01:11:35.439Z,97.80
2018-04-02T01:14:02.705Z,73.40
2018-04-02T01:16:30.057Z,95.23
2018-04-02T01:18:57.414Z,90.57
2018-04-02T01:21:24.704Z,81.03
2018-04-02T01:23:52.016Z,79.20
2018-04-02T01:26:19.287Z,76.20
2018-04-02T01:28:46.540Z,77.27
2018-04-02T01:31:13.833Z,77.57
2018-04-02T01:33:41.131Z,76.00
2018-04-02T01:36:08.401Z,71.70
2018-04-02T01:38:35.701Z,77.63
2018-04-02T01:41:02.964Z,86.60
2018-04-02T01:43:30.254Z,68.03
2018-04-02T01:45:57.520Z,89.20
2018-04-02T01:48:24.788Z,75.20
2018-04-02T01:50:52.070Z,85.73
2018-04-02T01:53:19.337Z,76.53
2018-04-02T01:55:46.607Z,77.53
2018-04-02T01:58:13.896Z,79.07
2018-04-02T02:00:41.166Z,70.33
2018-04-02T02:03:08.465Z,81.40
2018-04-02T02:05:35.736Z,80.57
2018-04-02T02:08:03.020Z,75.90
2018-04-02T02:10:30.289Z,87.30
2018-04-02T02:12:57.556Z,76.27
2018-04-02T02:15:24.850Z,81.57
2018-04-02T02:17:52.109Z,80.63
2018-04-02T02:20:19.402Z,107.57
2018-04-02T02:22:46.675Z,75.37
2018-04-02T02:25:13.964Z,81.03
2018-04-02T02:27:41.320Z,70.70
2018-04-02T02:30:08.584Z,132.53
2018-04-02T02:32:35.932Z,83.17
2018-04-02T02:35:03.261Z,79.10
2018-04-02T02:37:30.489Z,93.17
2018-04-02T02:39:57.781Z,78.43
2018-04-02T02:42:25.070Z,76.73
2018-04-02T02:44:52.338Z,109.17
2018-04-02T02:47:19.633Z,74.27
2018-04-02T02:49:46.897Z,75.03
2018-04-02T02:52:14.157Z,71.30
2018-04-02T02:54:41.445Z,102.90
2018-04-02T02:57:08.773Z,73.83
2018-04-02T02:59:36.129Z,85.47
2018-04-02T03:02:03.418Z,70.50
2018-04-02T03:04:30.693Z,77.23
2018-04-02T03:06:57.985Z,70.80
2018-04-02T03:09:25.257Z,66.90
2018-04-02T03:11:52.597Z,83.03
2018-04-02T03:14:19.885Z,74.97
2018-04-02T03:16:47.156Z,81.27
2018-04-02T03:19:14.457Z,68.83
2018-04-02T03:21:41.716Z,60.93
2018-04-02T03:24:08.980Z,74.97
2018-04-02T03:26:36.273Z,60.50
2018-04-02T03:29:03.532Z,57.93
2018-04-02T03:31:30.802Z,70.30
2018-04-02T03:33:58.085Z,61.10
2018-04-02T03:36:25.377Z,69.70
2018-04-02T03:38:52.736Z,62.90
2018-04-02T03:41:20.022Z,60.10
2018-04-02T03:43:47.304Z,63.67
2018-04-02T03:46:14.597Z,57.23
2018-04-02T03:48:41.868Z,55.83
2018-04-02T03:51:09.128Z,60.03
2018-04-02T03:53:36.418Z,79.87
2018-04-02T03:56:03.684Z,58.37
2018-04-02T03:58:30.973Z,54.23
2018-04-02T04:00:58.245Z,61.60
2018-04-02T04:03:25.528Z,60.50
2018-04-02T04:05:52.792Z,61.93
2018-04-02T04:08:20.061Z,54.33
2018-04-02T04:10:47.357Z,62.40
2018-04-02T04:13:14.640Z,59.50
2018-04-02T04:15:42.004Z,53.80
2018-04-02T04:18:09.299Z,67.40
2018-04-02T04:20:36.559Z,59.43
2018-04-02T04:23:03.847Z,69.97
2018-04-02T04:25:31.112Z,74.83
2018-04-02T04:27:58.400Z,53.23
2018-04-02T04:30:25.667Z,49.63
2018-04-02T04:32:52.938Z,61.60
2018-04-02T04:35:20.233Z,63.10
2018-04-02T04:37:47.528Z,74.73
2018-04-02T04:40:14.817Z,47.10
2018-04-02T04:42:42.084Z,48.47
2018-04-02T04:45:09.453Z,45.40
2018-04-02T04:47:36.717Z,50.03
2018-04-02T04:50:04.007Z,55.90
2018-04-02T04:52:31.273Z,49.03
2018-04-02T04:54:58.564Z,43.20
2018-04-02T04:57:25.837Z,54.07
2018-04-02T04:59:53.101Z,42.13
2018-04-02T05:02:20.395Z,45.73
2018-04-02T05:04:47.660Z,37.43
2018-04-02T05:07:14.937Z,40.57
2018-04-02T05:09:42.204Z,39.17
2018-04-02T05:12:09.489Z,42.50
2018-04-02T05:14:36.773Z,40.67
2018-04-02T05:17:04.038Z,40.97
2018-04-02T05:19:31.329Z,56.37
2018-04-02T05:21:58.615Z,53.27
2018-04-02T05:24:25.880Z,55.30
2018-04-02T05:26:53.361Z,44.57
2018-04-02T05:29:20.620Z,43.40
2018-04-02T05:31:47.884Z,50.30
2018-04-02T05:34:15.174Z,51.67
2018-04-02T05:36:42.436Z,52.10
2018-04-02T05:39:09.708Z,45.67
2018-04-02T05:41:36.996Z,48.47
2018-04-02T05:44:04.261Z,47.60
2018-04-02T05:46:31.556Z,37.57
2018-04-02T05:48:58.859Z,42.93
2018-04-02T05:51:26.119Z,41.20
2018-04-02T05:53:53.422Z,43.20
2018-04-02T05:56:20.693Z,46.93
2018-04-02T05:58:48.009Z,36.07
2018-04-02T06:01:15.278Z,38.17
2018-04-02T06:03:42.585Z,43.60
2018-04-02T06:06:09.880Z,35.30
2018-04-02T06:08:37.208Z,38.40
2018-04-02T06:11:04.447Z,36.50
2018-04-02T06:13:31.738Z,39.53
2018-04-02T06:15:59.021Z,37.93
2018-04-02T06:18:26.289Z,38.10
2018-04-02T06:20:53.578Z,36.30
2018-04-02T06:23:20.844Z,43.90
2018-04-02T06:25:48.136Z,35.83
2018-04-02T06:28:15.403Z,40.53
2018-04-02T06:30:42.736Z,36.10
2018-04-02T06:33:10.071Z,40.97
2018-04-02T06:35:37.296Z,36.90
2018-04-02T06:38:04.571Z,38.07
2018-04-02T06:40:31.866Z,37.07
2018-04-02T06:42:59.130Z,35.20
2018-04-02T06:45:26.396Z,34.47
2018-04-02T06:47:53.690Z,35.47
2018-04-02T06:50:20.949Z,33.37
2018-04-02T06:52:48.274Z,42.23
2018-04-02T06:55:15.538Z,32.93
2018-04-02T06:57:42.877Z,35.70
2018-04-02T07:00:10.227Z,33.17
2018-04-02T07:02:37.489Z,34.60
2018-04-02T07:05:04.836Z,33.57
2018-04-02T07:07:32.135Z,32.23
2018-04-02T07:09:59.391Z,31.33
2018-04-02T07:12:26.660Z,34.33
2018-04-02T07:14:53.951Z,30.60
2018-04-02T07:17:21.212Z,31.13
2018-04-02T07:19:48.560Z,34.23
2018-04-02T07:22:15.852Z,32.97
2018-04-02T07:24:43.125Z,35.93
2018-04-02T07:27:10.398Z,37.20
2018-04-02T07:29:37.774Z,28.93
2018-04-02T07:32:05.056Z,33.27
2018-04-02T07:34:32.388Z,31.70
2018-04-02T07:36:59.676Z,34.90
2018-04-02T07:39:26.936Z,33.20
2018-04-02T07:41:54.229Z,27.50
2018-04-02T07:44:21.518Z,32.03
2018-04-02T07:46:48.796Z,26.00
2018-04-02T07:49:16.064Z,30.40
2018-04-02T07:51:43.353Z,25.50
2018-04-02T07:54:10.636Z,27.80
2018-04-02T07:56:37.912Z,23.80
2018-04-02T07:59:05.177Z,28.53
2018-04-02T08:01:32.465Z,30.40
2018-04-02T08:03:59.728Z,32.07
2018-04-02T08:06:27.125Z,27.47
2018-04-02T08:08:54.412Z,27.23
2018-04-02T08:11:21.677Z,25.60
2018-04-02T08:13:48.970Z,26.20
2018-04-02T08:16:16.232Z,23.83
2018-04-02T08:18:43.503Z,25.07
2018-04-02T08:21:10.789Z,27.93
2018-04-02T08:23:38.061Z,23.93
2018-04-02T08:26:05.316Z,23.23
2018-04-02T08:28:32.597Z,23.83
2018-04-02T08:30:59.893Z,26.00
2018-04-02T08:33:27.190Z,22.97
2018-04-02T08:35:54.536Z,21.03
2018-04-02T08:38:21.806Z,20.97
2018-04-02T08:40:49.101Z,21.90
2018-04-02T08:43:16.366Z,20.33
2018-04-02T08:45:43.664Z,21.50
2018-04-02T08:48:10.928Z,20.77
2018-04-02T08:50:38.221Z,18.93
2018-04-02T08:53:05.518Z,18.60
2018-04-02T08:55:32.780Z,18.03
2018-04-02T08:58:00.044Z,21.60
2018-04-02T09:00:27.392Z,20.90
2018-04-02T09:02:54.660Z,18.40
2018-04-02T09:05:21.932Z,20.70
2018-04-02T09:07:49.205Z,18.13
2018-04-02T09:10:16.474Z,17.00
2018-04-02T09:12:43.769Z,19.23
2018-04-02T09:15:11.060Z,18.60
2018-04-02T09:17:38.316Z,19.37
2018-04-02T09:20:05.608Z,16.37
2018-04-02T09:22:32.897Z,18.30
2018-04-02T09:25:00.164Z,17.77
2018-04-02T09:27:27.429Z,14.20
2018-04-02T09:29:54.757Z,17.73
2018-04-02T09:32:21.994Z,17.00
2018-04-02T09:34:49.288Z,18.17
2018-04-02T09:37:16.557Z,17.70
2018-04-02T09:39:43.817Z,17.90
2018-04-02T09:42:11.108Z,19.47
2018-04-02T09:44:38.456Z,18.70
2018-04-02T09:47:05.753Z,22.07
2018-04-02T09:49:33.018Z,18.80
2018-04-02T09:52:00.417Z,16.90
2018-04-02T09:54:27.777Z,16.27
2018-04-02T09:56:55.136Z,18.80
2018-04-02T09:59:22.452Z,19.20
2018-04-02T10:01:49.700Z,19.60
2018-04-02T10:04:16.968Z,18.43
2018-04-02T10:06:44.236Z,17.87
2018-04-02T10:09:11.518Z,25.10
2018-04-02T10:11:38.864Z,17.97
2018-04-02T10:14:06.154Z,18.97
2018-04-02T10:16:33.424Z,17.13
2018-04-02T10:19:00.688Z,16.93
2018-04-02T10:21:28.073Z,18.30
2018-04-02T10:23:55.363Z,16.50
2018-04-02T10:26:22.608Z,17.20
2018-04-02T10:28:49.936Z,18.30
2018-04-02T10:31:17.204Z,18.97
2018-04-02T10:33:44.506Z,16.60
2018-04-02T10:36:11.778Z,18.63
2018-04-02T10:38:39.131Z,15.67
2018-04-02T10:41:06.334Z,18.43
2018-04-02T10:43:33.644Z,16.30
2018-04-02T10:46:00.922Z,16.80
2018-04-02T10:48:28.184Z,17.03
2018-04-02T10:50:55.524Z,14.37
2018-04-02T10:53:22.800Z,15.40
2018-04-02T10:55:50.100Z,13.90
2018-04-02T10:58:17.365Z,15.27
2018-04-02T11:00:44.661Z,13.73
2018-04-02T11:03:12.000Z,14.80
2018-04-02T11:05:39.321Z,12.57
2018-04-02T11:08:06.581Z,12.40
2018-04-02T11:10:33.895Z,11.37
2018-04-02T11:13:01.145Z,12.27
2018-04-02T11:15:28.410Z,13.00
2018-04-02T11:17:55.749Z,13.60
2018-04-02T11:20:23.016Z,19.47
2018-04-02T11:22:50.288Z,14.27
2018-04-02T11:25:17.680Z,10.83
2018-04-02T11:27:44.969Z,11.17
2018-04-02T11:30:12.256Z,12.00
2018-04-02T11:32:39.542Z,13.20
2018-04-02T11:35:06.810Z,12.00
2018-04-02T11:37:34.057Z,11.30
2018-04-02T11:40:01.344Z,10.37
2018-04-02T11:42:28.595Z,10.67
2018-04-02T11:44:55.915Z,11.10
2018-04-02T11:47:23.269Z,11.20
2018-04-02T11:49:50.627Z,10.83
2018-04-02T11:52:17.912Z,10.17
2018-04-02T11:54:45.187Z,9.00
2018-04-02T11:57:12.482Z,12.90
2018-04-02T11:59:39.725Z,9.33
2018-04-02T12:02:07.008Z,11.67
2018-04-02T12:04:34.352Z,8.50
2018-04-02T12:07:01.624Z,10.13
2018-04-02T12:09:28.917Z,12.70
2018-04-02T12:11:56.198Z,10.60
2018-04-02T12:14:23.481Z,11.30
2018-04-02T12:16:50.769Z,11.20
2018-04-02T12:19:18.020Z,13.47
2018-04-02T12:21:45.287Z,13.00
2018-04-02T12:24:12.568Z,10.50
2018-04-02T12:26:39.842Z,9.73
2018-04-02T12:29:07.192Z,15.23
2018-04-02T12:31:34.553Z,14.60
2018-04-02T12:34:01.818Z,10.73
2018-04-02T12:36:29.110Z,14.27
2018-04-02T12:38:56.364Z,9.03
2018-04-02T12:41:23.641Z,8.40
2018-04-02T12:43:50.905Z,8.97
2018-04-02T12:46:18.294Z,8.77
2018-04-02T12:48:45.564Z,8.80
2018-04-02T12:51:12.821Z,7.93
2018-04-02T12:53:40.182Z,6.73
2018-04-02T12:56:07.421Z,10.63
2018-04-02T12:58:34.712Z,9.67
2018-04-02T13:01:02.002Z,9.77
2018-04-02T13:03:29.252Z,12.17
2018-04-02T13:05:56.546Z,11.93
2018-04-02T13:08:23.860Z,9.17
2018-04-02T13:10:51.129Z,11.63
2018-04-02T13:13:18.412Z,10.10
2018-04-02T13:15:45.726Z,10.50
2018-04-02T13:18:13.009Z,8.77
2018-04-02T13:20:40.273Z,10.20
2018-04-02T13:23:07.520Z,7.80
2018-04-02T13:25:34.827Z,9.80
2018-04-02T13:28:02.049Z,10.80
2018-04-02T13:30:29.314Z,9.50
2018-04-02T13:32:56.614Z,11.80
2018-04-02T13:35:23.878Z,8.13
2018-04-02T13:37:51.146Z,9.77
2018-04-02T13:40:18.401Z,9.80
2018-04-02T13:42:45.673Z,9.07
2018-04-02T13:45:12.972Z,8.63
2018-04-02T13:47:40.260Z,7.53
2018-04-02T13:50:07.520Z,10.37
2018-04-02T13:52:34.775Z,10.87
2018-04-02T13:55:02.065Z,8.27
2018-04-02T13:57:29.316Z,8.47
2018-04-02T13:59:56.568Z,9.40
2018-04-02T14:02:23.845Z,8.73
2018-04-02T14:04:51.205Z,8.00
2018-04-02T14:07:18.458Z,9.87
2018-04-02T14:09:45.708Z,6.90
2018-04-02T14:12:12.981Z,7.10
2018-04-02T14:14:40.257Z,8.03
2018-04-02T14:17:07.513Z,6.90
2018-04-02T14:19:34.792Z,8.13
2018-04-02T14:22:02.087Z,15.47
2018-04-02T14:24:29.365Z,6.50
2018-04-02T14:26:56.690Z,8.30
2018-04-02T14:29:23.948Z,8.30
2018-04-02T14:31:51.216Z,8.27
2018-04-02T14:34:18.468Z,8.23
2018-04-02T14:36:45.752Z,6.70
2018-04-02T14:39:13.056Z,7.17
2018-04-02T14:41:40.411Z,5.90
2018-04-02T14:44:07.660Z,7.90
2018-04-02T14:46:34.948Z,7.10
2018-04-02T14:49:02.281Z,6.70
2018-04-02T14:51:29.536Z,8.83
2018-04-02T14:53:56.808Z,7.70
2018-04-02T14:56:24.151Z,8.00
2018-04-02T14:58:51.404Z,7.40
2018-04-02T15:01:18.765Z,6.90
2018-04-02T15:03:46.110Z,5.67
2018-04-02T15:06:13.359Z,8.23
2018-04-02T15:08:40.712Z,7.17
2018-04-02T15:11:07.964Z,6.43
2018-04-02T15:13:35.242Z,11.30
2018-04-02T15:16:02.500Z,13.83
2018-04-02T15:18:29.833Z,11.33
2018-04-02T15:20:57.088Z,16.13
2018-04-02T15:23:24.360Z,5.50
2018-04-02T15:25:51.609Z,5.23
2018-04-02T15:28:18.898Z,5.23
2018-04-02T15:30:46.147Z,11.03
2018-04-02T15:33:13.416Z,7.90
2018-04-02T15:35:40.699Z,5.60
2018-04-02T15:38:07.953Z,11.73
2018-04-02T15:40:35.314Z,9.97
2018-04-02T15:43:02.564Z,6.20
2018-04-02T15:45:29.893Z,8.87
2018-04-02T15:47:57.152Z,9.47
2018-04-02T15:50:24.420Z,5.97
2018-04-02T15:52:51.694Z,7.93
2018-04-02T15:55:19.051Z,6.80
2018-04-02T15:57:46.300Z,8.20
2018-04-02T16:00:13.576Z,7.20
2018-04-02T16:02:40.824Z,7.87
2018-04-02T16:05:08.096Z,4.73
2018-04-02T16:07:35.354Z,6.63
2018-04-02T16:10:02.672Z,5.00
2018-04-02T16:12:29.928Z,5.00
2018-04-02T16:14:57.196Z,4.73
2018-04-02T16:17:24.448Z,4.47
2018-04-02T16:19:51.732Z,5.10
2018-04-02T16:22:18.988Z,6.27
2018-04-02T16:24:46.293Z,6.60
2018-04-02T16:27:13.653Z,6.27
2018-04-02T16:29:40.901Z,6.70
2018-04-02T16:32:08.172Z,6.00
2018-04-02T16:34:35.436Z,5.13
2018-04-02T16:37:02.708Z,4.93
2018-04-02T16:39:29.961Z,4.20
2018-04-02T16:41:57.229Z,6.40
2018-04-02T16:44:24.485Z,5.90
2018-04-02T16:46:51.749Z,5.30
2018-04-02T16:49:19.004Z,4.37
2018-04-02T16:51:46.273Z,3.73
2018-04-02T16:54:13.523Z,4.87
2018-04-02T16:56:40.800Z,7.37
2018-04-02T16:59:08.052Z,6.80
2018-04-02T17:01:35.313Z,6.30
2018-04-02T17:04:02.581Z,6.03
2018-04-02T17:06:29.837Z,5.43
2018-04-02T17:08:57.108Z,2.77
2018-04-02T17:11:24.365Z,2.30
2018-04-02T17:13:51.669Z,3.43
2018-04-02T17:16:19.013Z,2.43
2018-04-02T17:18:46.307Z,3.60
2018-04-02T17:21:13.558Z,3.40
2018-04-02T17:23:40.812Z,4.60
2018-04-02T17:26:08.096Z,2.40
2018-04-02T17:28:35.364Z,4.40
2018-04-02T17:31:02.656Z,5.77
2018-04-02T17:33:29.936Z,5.03
2018-04-02T17:35:57.189Z,2.80
2018-04-02T17:38:24.464Z,2.60
2018-04-02T17:40:51.725Z,3.47
2018-04-02T17:43:18.976Z,6.30
2018-04-02T17:45:47.166Z,2.30
2018-04-02T17:48:14.421Z,3.47
2018-04-02T17:50:41.701Z,4.33
2018-04-02T17:53:08.952Z,3.63
2018-04-02T17:55:36.303Z,3.03
2018-04-02T17:58:03.565Z,4.10
2018-04-02T18:00:30.884Z,4.63
2018-04-02T18:02:58.130Z,2.23
2018-04-02T18:05:25.407Z,4.90
2018-04-02T18:07:52.658Z,2.23
2018-04-02T18:10:19.924Z,4.90
2018-04-02T18:12:47.187Z,3.30
2018-04-02T18:15:14.466Z,5.80
2018-04-02T18:17:41.718Z,2.37
2018-04-02T18:20:08.994Z,3.20
2018-04-02T18:22:36.247Z,2.33
2018-04-02T18:25:03.544Z,5.57
2018-04-02T18:27:30.812Z,9.40
2018-04-02T18:29:58.069Z,3.67
2018-04-02T18:32:25.356Z,2.90
2018-04-02T18:34:52.608Z,4.10
2018-04-02T18:37:19.912Z,4.93
2018-04-02T18:39:47.183Z,3.07
2018-04-02T18:42:14.456Z,4.27
2018-04-02T18:44:41.717Z,3.97
2018-04-02T18:47:08.994Z,2.70
2018-04-02T18:49:36.245Z,5.57
2018-04-02T18:52:03.536Z,7.03
2018-04-02T18:54:30.792Z,3.73
2018-04-02T18:56:58.079Z,5.80
2018-04-02T18:59:25.353Z,4.50
2018-04-02T19:01:52.591Z,2.50
2018-04-02T19:04:19.904Z,3.37
2018-04-02T19:06:47.160Z,4.73
2018-04-02T19:09:14.449Z,3.20
2018-04-02T19:11:41.680Z,4.27
2018-04-02T19:14:08.953Z,5.33
2018-04-02T19:16:36.200Z,2.90
2018-04-02T19:19:03.480Z,3.20
2018-04-02T19:21:30.780Z,2.73
2018-04-02T19:23:58.053Z,4.23
2018-04-02T19:26:25.300Z,3.90
2018-04-02T19:28:52.706Z,6.33
2018-04-02T19:31:19.965Z,4.30
2018-04-02T19:33:47.240Z,4.87
2018-04-02T19:36:14.529Z,3.03
2018-04-02T19:38:41.780Z,6.57
2018-04-02T19:41:09.033Z,4.70
2018-04-02T19:43:36.317Z,4.83
2018-04-02T19:46:03.586Z,2.80
2018-04-02T19:48:30.833Z,3.57
2018-04-02T19:50:58.110Z,2.60
2018-04-02T19:53:25.355Z,3.43
2018-04-02T19:55:52.649Z,2.40
2018-04-02T19:58:19.901Z,5.53
2018-04-02T20:00:47.174Z,5.57
2018-04-02T20:03:14.423Z,5.30
2018-04-02T20:05:41.697Z,5.53
2018-04-02T20:08:08.956Z,3.63
2018-04-02T20:10:36.236Z,4.57
2018-04-02T20:13:03.489Z,4.80
2018-04-02T20:15:30.792Z,2.83
2018-04-02T20:17:58.048Z,5.80
2018-04-02T20:20:25.293Z,2.77
2018-04-02T20:22:52.619Z,3.43
2018-04-02T20:25:19.828Z,3.43
2018-04-02T20:27:47.112Z,7.20
2018-04-02T20:30:14.387Z,3.70
2018-04-02T20:32:41.666Z,3.73
2018-04-02T20:35:09.073Z,2.67
2018-04-02T20:37:36.328Z,3.40
2018-04-02T20:40:03.582Z,4.83
2018-04-02T20:42:30.852Z,5.73
2018-04-02T20:44:58.109Z,3.40
2018-04-02T20:47:25.381Z,4.70
2018-04-02T20:49:52.643Z,5.83
2018-04-02T20:52:19.904Z,5.60
2018-04-02T20:54:47.173Z,2.53
2018-04-02T20:57:14.436Z,4.97
2018-04-02T20:59:41.705Z,7.47
2018-04-02T21:02:09.001Z,3.77
2018-04-02T21:04:36.348Z,3.33
2018-04-02T21:07:03.600Z,4.10
2018-04-02T21:09:30.884Z,4.60
2018-04-02T21:11:59.933Z,4.07
2018-04-02T21:14:27.204Z,3.60
2018-04-02T21:16:54.452Z,4.40
2018-04-02T21:19:21.733Z,3.67
2018-04-02T21:21:48.993Z,4.67
2018-04-02T21:24:16.479Z,2.90
2018-04-02T21:26:43.816Z,4.83
2018-04-02T21:29:11.056Z,4.70
2018-04-02T21:31:38.380Z,4.00
2018-04-02T21:34:05.646Z,12.80
2018-04-02T21:36:32.921Z,5.20
2018-04-02T21:39:00.201Z,4.40
2018-04-02T21:41:27.468Z,3.87
2018-04-02T21:43:54.720Z,3.73
2018-04-02T21:46:22.004Z,14.43
2018-04-02T21:48:49.256Z,5.37
2018-04-02T21:51:16.524Z,3.13
2018-04-02T21:53:43.786Z,4.70
2018-04-02T21:56:11.124Z,4.50
2018-04-02T21:58:38.473Z,5.03
2018-04-02T22:01:05.744Z,5.27
2018-04-02T22:03:33.184Z,4.40
2018-04-02T22:06:00.452Z,3.67
2018-04-02T22:08:27.716Z,5.00
2018-04-02T22:10:54.996Z,5.80
2018-04-02T22:13:22.260Z,3.63
2018-04-02T22:15:49.496Z,4.00
2018-04-02T22:18:16.823Z,5.23
2018-04-02T22:20:44.078Z,3.90
2018-04-02T22:23:11.336Z,3.90
2018-04-02T22:25:38.606Z,3.43
2018-04-02T22:28:06.100Z,3.70
2018-04-02T22:30:33.367Z,5.00
2018-04-02T22:33:00.641Z,5.23
2018-04-02T22:35:27.890Z,5.30
2018-04-02T22:37:55.160Z,4.73
2018-04-02T22:40:22.417Z,4.50
2018-04-02T22:42:49.686Z,4.50
2018-04-02T22:45:16.932Z,3.80
2018-04-02T22:47:44.216Z,4.33
2018-04-02T22:50:11.520Z,4.97
2018-04-02T22:52:38.808Z,7.17
2018-04-02T22:55:06.056Z,3.60
2018-04-02T22:57:33.413Z,4.60
2018-04-02T23:00:00.785Z,4.90
2018-04-02T23:02:28.037Z,4.30
2018-04-02T23:04:55.321Z,5.20
2018-04-02T23:07:22.592Z,3.80
2018-04-02T23:09:49.848Z,5.40
2018-04-02T23:12:17.124Z,6.33
2018-04-02T23:14:44.381Z,3.17
2018-04-02T23:17:11.636Z,5.27
2018-04-02T23:19:38.962Z,9.10
2018-04-02T23:22:06.249Z,6.73
2018-04-02T23:24:33.512Z,3.40
2018-04-02T23:27:00.768Z,4.03
2018-04-02T23:29:28.042Z,4.50
2018-04-02T23:31:55.316Z,6.87
2018-04-02T23:34:22.585Z,3.43
2018-04-02T23:36:49.836Z,3.60
2018-04-02T23:39:17.085Z,3.40
2018-04-02T23:41:44.356Z,3.93
2018-04-02T23:44:11.607Z,3.30
2018-04-02T23:46:38.961Z,3.43
2018-04-02T23:49:06.214Z,3.87
2018-04-02T23:51:33.486Z,2.83
2018-04-02T23:54:00.736Z,3.73
2018-04-02T23:56:28.008Z,3.97
2018-04-02T23:58:55.260Z,8.80
